AirNav  
 
 266 users online  

I20
(formerly 2IG4)
Ed-Air Airport
Oaktown, Indiana, USA

GOING TO OAKTOWN?


FAA INFORMATION EFFECTIVE 04 JANUARY 2018

Location

FAA Identifier: I20
Lat/Long: 38-51-05.3950N / 087-29-59.2550W
38-51.089917N / 087-29.987583W
38.8514986 / -87.4997931
(estimated)
Elevation: 426 ft. / 130 m (estimated)
Variation: 01W (1985)
From city: 3 miles SW of OAKTOWN, IN
Time zone: UTC -5 (UTC -4 during Daylight Saving Time)
Zip code: 47561

Airport Operations

Airport use: Open to the public
Activation date: 02/1944
Control tower: no
ARTCC: INDIANAPOLIS CENTER
FSS: TERRE HAUTE FLIGHT SERVICE STATION
NOTAMs facility: HUF (NOTAM-D service not available)
Attendance: IREG
Wind indicator: yes
Segmented circle: no
Lights: RUNWAY LIGHTS FOR OWNER'S USE ONLY.
Beacon: white-green (lighted land airport)
BEACON FOR OWNER'S USE ONLY.

Airport Communications

CTAF/UNICOM: 122.8
WX ASOS at LWV (7 nm SW): 118.0 (618-943-5252)
WX AWOS-3 at RSV (12 nm NW): 120.50 (618-586-2772)
WX AWOS-3 at AJG (18 nm SW): 134.900 (618-948-2184)
WX AWOS-3PT at DCY (20 nm SE): 124.1 (812-257-8889)

Nearby radio navigation aids

VOR radial/distance  VOR name  Freq  Var
LWVr046/6.9LAWRENCEVILLE VOR/DME108.8001W
SAMr048/35.2SAMSVILLE VOR/DME116.6003E
TTHr195/40.0TERRE HAUTE VORTAC115.3002E

 
NDB name  Hdg/Dist  Freq  Var  ID
PALESTINE149/11.839103WPLX .--. .-.. -..-
SULLIVAN191/15.932602WSIV ... .. ...-
OLNEY079/32.527203WOLY --- .-.. -.--

Airport Services

Airframe service: MINOR
Powerplant service: MINOR

Runway Information

Runway 18/36

Dimensions: 5835 x 100 ft. / 1779 x 30 m
Surface: asphalt, in fair condition
Runway edge lights: low intensity
RUNWAY 18  RUNWAY 36
Latitude: 38-51.570333N38-50.609500N
Longitude: 087-29.992333W087-29.982833W
Elevation: 426.0 ft.426.0 ft.
Traffic pattern: leftleft
Displaced threshold: 100 ft.85 ft.
Markings: basic, in good conditionbasic, in good condition
Obstructions: 12 ft. tank, 295 ft. from runway, 115 ft. right of centerline, 8:1 slope to clear13 ft. road, 316 ft. from runway, 9:1 slope to clear

Airport Ownership and Management from official FAA records

Ownership: Privately-owned
Owner: EDWARD A. HUDDLESTON
RR4 BOX 303
SULLIVAN, IN 47882
Phone 812-268-5220
Manager: EDWARD A. HUDDLESTON
2253 EAST AIRPORT ROAD
OAKTOWN, IN 47561
Phone 812-268-5220

Airport Operational Statistics

Aircraft based on the field: 4
Single engine airplanes: 1
Multi engine airplanes: 2
Helicopters: 1
    
Aircraft operations: avg 46/month *
55% transient general aviation
45% local general aviation
* for 12-month period ending 31 December 2015

Additional Remarks

HANGAR NEAR NORTH END-WEST SIDE OF RWY.

Instrument Procedures

There are no published instrument procedures at I20.

Some nearby airports with instrument procedures:

KLWV - Lawrenceville-Vincennes International Airport (7 nm SW)
KRSV - Crawford County Airport (12 nm NW)
KSIV - Sullivan County Airport (16 nm N)
KAJG - Mount Carmel Municipal Airport (18 nm SW)
KDCY - Daviess County Airport (20 nm SE)
 
Loc | Ops | Rwys | IFR | FBO | Links
Com | Nav | Svcs | Stats | Notes


 
Area around I20 (Ed-Air Airport)
 
Road maps at: MapQuest Bing Google
 
Aerial photo
No photo
 
Sectional chart

 
Airport distance calculator
Flying to Ed-Air Airport? Find the distance to fly.

From to I20

Sunrise and sunset
Times for 18-Jan-2018
 Local
(UTC-5)
 Zulu
(UTC)
Morning civil twilight07:3812:38
Sunrise08:0713:07
Sunset17:5422:54
Evening civil twilight18:2323:23

Current date and time
Zulu (UTC)  18-Jan-2018 08:21:28
Local (UTC-5)  18-Jan-2018 03:21:28
 
METAR
KLWV 
7nm SW 
180753Z AUTO 20009KT 10SM CLR M13/M15 A3045 RMK AO2 SLP318 T11281150
KRSV 
12nm NW 
180755Z AUTO 22005KT 10SM CLR M12/M15 A3044 RMK AO2 T11211148
KAJG 
18nm SW 
180755Z AUTO 22008KT 10SM CLR M11/M15 A3045 RMK AO2 T11141147
KDCY 
20nm SE 
180755Z AUTO 22010KT 10SM CLR M11/M15 A3045 RMK AO2 T11121154
TAF
KHUF 
37nm N 
180520Z 1806/1906 22007KT P6SM FEW250 FM181800 21011G20KT P6SM SKC FM190200 20009KT P6SM FEW250
KHNB 
44nm SE 
180520Z 1806/1906 20005KT P6SM SKC FM181500 22009KT P6SM SKC
KBMG 
45nm NE 
180520Z 1806/1906 23006KT P6SM FEW250 FM181800 22010G20KT P6SM SKC FM190200 21008KT P6SM FEW250 AMD LTD TO CLD VIS AND WIND TIL 181400
NOTAMs
Click for the latest NOTAMs
NOTAMs are issued by the DoD/FAA and will open in a separate window not controlled by AirNav.

 

 
 

Would you like to see your business listed on this page?

 If your business provides an interesting product or service to pilots, flight crews, aircraft, or users of the Ed-Air Airport, you should consider listing it here.  To start the listing process, click on the button below
 
Add a business
 

Other Pages about Ed-Air Airport

Update a link
 
Copyright © AirNav, LLC. All rights reserved. Privacy Policy  Contact